Hlavní strana
METAR-TAF:

METAR-TAF

Letiště :

Örnsköldsvik, Švédsko

zeměpisná šířka: 63-24N, zeměpisná délka: 018-58E, výška: 103 m

Aktuální stav počasí

Zpráva byla vytvořena před 31 minutami, v 04:50 UTC
Západojihozápadní vítr 4 kt, proměnlivý mezi jihozápadním a západním
Teplota -6°C
Vlhkost vzduchu 73%
Tlak 1024 hPa
Viditelnost 10 km a více

METAR: ESNO 050450Z AUTO 25004KT 220V280 9999 NCD M06/M10 Q1024

Čas: 07:21 (05:21 UTC)


TAF: chybějící

Stav a předpovědi počasí z více než 4 000 letišť (zprávy METAR a TAF).

Červené a žluté tečky na mapě představují dostupné meteorologické stanice.

Když kurzor umístíte na tečku, zobrazí se název stanice.

Pak kliknutím zobrazíte stav a předpověď počasí.

Chcete-li změnit mapu, kliknutím na zelené tlačítko se znaménkem +mapu přiblížíte, kliknutím na zelené tlačítko se znaménkem – mapu oddálíte a kliknutím na zelené šipky přejdete na sousední mapy.


METAR-TAF: